Terminal Aerodrome Forecast
Issued by NWS

Home | Current Version | Previous Version | Text Only | Print | Product List | Glossary On
Versions: 1 2 3 4 5 6 7 8 9 10 11 12
000
FTUS46 KMFR 310500 RRA
TAFLMT
TAF
KLMT 310553Z 3106/0106 VRB03KT P6SM VCSH BKN080 BKN200
     FM312200 31012KT P6SM VCTS BKN060CB BKN200
     FM010500 VRB03KT P6SM SCT080 BKN200=

USA.gov is the U.S. government's official web portal to all federal, state and local government web resources and services.